Terminal Aerodrome Forecast
Issued by NWS

Home | Current Version | Previous Version | Text Only | Print | Product List | Glossary Off
Versions: 1 2 3 4 5 6 7 8 9 10 11 12 13 14 15 16 17 18

000
FTUS43 KGRB 291100
TAFRHI
TAF
KRHI 291124Z 2912/3012 29010KT P6SM SCT012 OVC030
      TEMPO 2912/2915 -SHRASN BKN012
     FM291500 29008KT P6SM BKN020 OVC035
     FM292300 27003KT P6SM BKN018 BKN035=

USA.gov is the U.S. government's official web portal to all federal, state and local government web resources and services.